sensor_id;sensor_type;location;lat;lon;timestamp;pressure;altitude;pressure_sealevel;temperature;humidity
55301;BME280;58302;51.446;-2.000;2022-07-22T00:00:16;101195.75;;;18.04;77.67
55301;BME280;58302;51.446;-2.000;2022-07-22T00:02:42;101201.25;;;18.04;77.69
55301;BME280;58302;51.446;-2.000;2022-07-22T00:05:08;101196.81;;;18.08;76.92
55301;BME280;58302;51.446;-2.000;2022-07-22T00:07:37;101200.28;;;18.14;76.61
55301;BME280;58302;51.446;-2.000;2022-07-22T00:10:05;101194.72;;;18.19;76.16
55301;BME280;58302;51.446;-2.000;2022-07-22T00:12:31;101187.28;;;18.20;75.99
55301;BME280;58302;51.446;-2.000;2022-07-22T00:14:57;101192.47;;;18.21;76.00
55301;BME280;58302;51.446;-2.000;2022-07-22T00:17:23;101190.91;;;18.15;76.08
55301;BME280;58302;51.446;-2.000;2022-07-22T00:19:50;101193.25;;;18.08;76.55
55301;BME280;58302;51.446;-2.000;2022-07-22T00:22:16;101190.47;;;18.08;76.54
55301;BME280;58302;51.446;-2.000;2022-07-22T00:24:42;101198.19;;;18.06;76.82
55301;BME280;58302;51.446;-2.000;2022-07-22T00:27:08;101194.69;;;18.00;77.21
55301;BME280;58302;51.446;-2.000;2022-07-22T00:29:34;101181.56;;;17.97;77.55
55301;BME280;58302;51.446;-2.000;2022-07-22T00:32:00;101193.66;;;17.96;77.98
55301;BME280;58302;51.446;-2.000;2022-07-22T00:34:26;101198.41;;;17.90;78.33
55301;BME280;58302;51.446;-2.000;2022-07-22T00:36:52;101192.69;;;17.87;78.68
55301;BME280;58302;51.446;-2.000;2022-07-22T00:39:18;101199.91;;;17.83;79.13
55301;BME280;58302;51.446;-2.000;2022-07-22T00:41:44;101194.16;;;17.79;79.41
55301;BME280;58302;51.446;-2.000;2022-07-22T00:44:10;101205.16;;;17.79;79.57
55301;BME280;58302;51.446;-2.000;2022-07-22T00:46:37;101216.97;;;17.80;79.71
55301;BME280;58302;51.446;-2.000;2022-07-22T00:49:06;101218.69;;;17.76;79.80
55301;BME280;58302;51.446;-2.000;2022-07-22T00:51:32;101215.66;;;17.77;80.11
55301;BME280;58302;51.446;-2.000;2022-07-22T00:54:00;101223.88;;;17.77;80.42
55301;BME280;58302;51.446;-2.000;2022-07-22T00:56:27;101214.53;;;17.78;80.71
55301;BME280;58302;51.446;-2.000;2022-07-22T00:58:56;101217.56;;;17.77;80.29
55301;BME280;58302;51.446;-2.000;2022-07-22T01:01:22;101221.44;;;17.76;80.54
55301;BME280;58302;51.446;-2.000;2022-07-22T01:03:48;101218.16;;;17.74;80.95
55301;BME280;58302;51.446;-2.000;2022-07-22T01:06:15;101209.91;;;17.74;81.21
55301;BME280;58302;51.446;-2.000;2022-07-22T01:08:41;101223.09;;;17.72;81.13
55301;BME280;58302;51.446;-2.000;2022-07-22T01:11:09;101217.59;;;17.72;81.45
55301;BME280;58302;51.446;-2.000;2022-07-22T01:13:36;101228.34;;;17.73;81.67
55301;BME280;58302;51.446;-2.000;2022-07-22T01:16:04;101220.09;;;17.73;81.97
55301;BME280;58302;51.446;-2.000;2022-07-22T01:18:30;101223.66;;;17.74;81.93
55301;BME280;58302;51.446;-2.000;2022-07-22T01:20:56;101219.28;;;17.73;81.91
55301;BME280;58302;51.446;-2.000;2022-07-22T01:23:22;101218.72;;;17.71;82.47
55301;BME280;58302;51.446;-2.000;2022-07-22T01:25:48;101216.03;;;17.65;82.59
55301;BME280;58302;51.446;-2.000;2022-07-22T01:28:15;101219.09;;;17.64;83.00
55301;BME280;58302;51.446;-2.000;2022-07-22T01:30:41;101222.09;;;17.62;83.10
55301;BME280;58302;51.446;-2.000;2022-07-22T01:33:07;101224.34;;;17.60;83.50
55301;BME280;58302;51.446;-2.000;2022-07-22T01:35:33;101217.78;;;17.56;83.77
55301;BME280;58302;51.446;-2.000;2022-07-22T01:37:59;101221.66;;;17.55;84.03
55301;BME280;58302;51.446;-2.000;2022-07-22T01:40:25;101213.97;;;17.52;84.23
55301;BME280;58302;51.446;-2.000;2022-07-22T01:42:51;101217.34;;;17.49;84.51
55301;BME280;58302;51.446;-2.000;2022-07-22T01:45:17;101214.34;;;17.46;84.80
55301;BME280;58302;51.446;-2.000;2022-07-22T01:47:43;101215.22;;;17.41;85.23
55301;BME280;58302;51.446;-2.000;2022-07-22T01:50:10;101212.53;;;17.36;85.50
55301;BME280;58302;51.446;-2.000;2022-07-22T01:52:38;101210.06;;;17.34;85.80
55301;BME280;58302;51.446;-2.000;2022-07-22T01:55:08;101208.44;;;17.33;86.15
55301;BME280;58302;51.446;-2.000;2022-07-22T01:57:36;101215.56;;;17.34;86.04
55301;BME280;58302;51.446;-2.000;2022-07-22T02:00:05;101213.13;;;17.33;86.24
55301;BME280;58302;51.446;-2.000;2022-07-22T02:02:31;101205.44;;;17.30;86.48
55301;BME280;58302;51.446;-2.000;2022-07-22T02:04:57;101203.59;;;17.25;86.63
55301;BME280;58302;51.446;-2.000;2022-07-22T02:07:23;101207.72;;;17.23;87.04
55301;BME280;58302;51.446;-2.000;2022-07-22T02:09:54;101202.28;;;17.18;87.30
55301;BME280;58302;51.446;-2.000;2022-07-22T02:12:20;101195.16;;;17.17;87.52
55301;BME280;58302;51.446;-2.000;2022-07-22T02:14:47;101195.22;;;17.11;88.17
55301;BME280;58302;51.446;-2.000;2022-07-22T02:17:13;101194.69;;;17.09;88.56
55301;BME280;58302;51.446;-2.000;2022-07-22T02:19:39;101198.03;;;17.06;88.50
55301;BME280;58302;51.446;-2.000;2022-07-22T02:22:06;101195.63;;;17.00;88.57
55301;BME280;58302;51.446;-2.000;2022-07-22T02:24:33;101201.69;;;16.97;89.01
55301;BME280;58302;51.446;-2.000;2022-07-22T02:26:59;101212.41;;;16.98;89.14
55301;BME280;58302;51.446;-2.000;2022-07-22T02:29:25;101203.09;;;16.94;89.50
55301;BME280;58302;51.446;-2.000;2022-07-22T02:31:52;101205.84;;;16.94;89.49
55301;BME280;58302;51.446;-2.000;2022-07-22T02:34:17;101203.34;;;16.98;89.41
55301;BME280;58302;51.446;-2.000;2022-07-22T02:36:43;101203.34;;;16.98;89.36
55301;BME280;58302;51.446;-2.000;2022-07-22T02:39:09;101199.19;;;17.00;89.25
55301;BME280;58302;51.446;-2.000;2022-07-22T02:41:36;101201.94;;;17.00;89.02
55301;BME280;58302;51.446;-2.000;2022-07-22T02:44:03;101199.19;;;17.00;89.10
55301;BME280;58302;51.446;-2.000;2022-07-22T02:46:29;101202.22;;;16.99;89.16
55301;BME280;58302;51.446;-2.000;2022-07-22T02:48:55;101192.91;;;16.95;89.49
55301;BME280;58302;51.446;-2.000;2022-07-22T02:51:21;101192.66;;;16.91;89.89
55301;BME280;58302;51.446;-2.000;2022-07-22T02:53:47;101198.16;;;16.91;89.76
55301;BME280;58302;51.446;-2.000;2022-07-22T02:56:13;101198.47;;;16.90;89.73
55301;BME280;58302;51.446;-2.000;2022-07-22T02:58:40;101199.88;;;16.87;89.81
55301;BME280;58302;51.446;-2.000;2022-07-22T03:01:06;101193.25;;;16.88;89.97
55301;BME280;58302;51.446;-2.000;2022-07-22T03:03:32;101199.03;;;16.86;89.97
55301;BME280;58302;51.446;-2.000;2022-07-22T03:05:58;101197.94;;;16.88;89.29
55301;BME280;58302;51.446;-2.000;2022-07-22T03:08:24;101184.47;;;16.86;89.21
55301;BME280;58302;51.446;-2.000;2022-07-22T03:10:51;101186.41;;;16.85;88.99
55301;BME280;58302;51.446;-2.000;2022-07-22T03:13:18;101186.41;;;16.85;88.27
55301;BME280;58302;51.446;-2.000;2022-07-22T03:15:44;101177.06;;;16.86;87.98
55301;BME280;58302;51.446;-2.000;2022-07-22T03:18:09;101176.25;;;16.86;87.26
55301;BME280;58302;51.446;-2.000;2022-07-22T03:20:35;101172.97;;;16.84;86.44
55301;BME280;58302;51.446;-2.000;2022-07-22T03:23:02;101172.69;;;16.85;84.39
55301;BME280;58302;51.446;-2.000;2022-07-22T03:25:28;101169.41;;;16.83;84.16
55301;BME280;58302;51.446;-2.000;2022-07-22T03:27:57;101167.53;;;16.79;83.02
55301;BME280;58302;51.446;-2.000;2022-07-22T03:30:23;101165.09;;;16.77;82.71
55301;BME280;58302;51.446;-2.000;2022-07-22T03:32:49;101158.00;;;16.71;82.10
55301;BME280;58302;51.446;-2.000;2022-07-22T03:35:15;101156.63;;;16.69;81.85
55301;BME280;58302;51.446;-2.000;2022-07-22T03:37:42;101155.03;;;16.63;81.51
55301;BME280;58302;51.446;-2.000;2022-07-22T03:40:09;101160.25;;;16.59;81.32
55301;BME280;58302;51.446;-2.000;2022-07-22T03:42:35;101152.91;;;16.54;81.69
55301;BME280;58302;51.446;-2.000;2022-07-22T03:45:01;101148.50;;;16.53;82.32
55301;BME280;58302;51.446;-2.000;2022-07-22T03:47:27;101151.84;;;16.50;83.09
55301;BME280;58302;51.446;-2.000;2022-07-22T03:49:53;101145.00;;;16.48;83.75
55301;BME280;58302;51.446;-2.000;2022-07-22T03:52:19;101143.72;;;16.40;84.07
55301;BME280;58302;51.446;-2.000;2022-07-22T03:54:45;101149.22;;;16.35;84.65
55301;BME280;58302;51.446;-2.000;2022-07-22T03:57:11;101143.50;;;16.31;84.60
55301;BME280;58302;51.446;-2.000;2022-07-22T03:59:37;101134.78;;;16.24;84.05
55301;BME280;58302;51.446;-2.000;2022-07-22T04:02:04;101151.00;;;16.21;83.26
55301;BME280;58302;51.446;-2.000;2022-07-22T04:04:29;101150.44;;;16.19;82.98
55301;BME280;58302;51.446;-2.000;2022-07-22T04:06:56;101135.66;;;16.15;81.22
55301;BME280;58302;51.446;-2.000;2022-07-22T04:09:22;101138.69;;;16.13;81.02
55301;BME280;58302;51.446;-2.000;2022-07-22T04:11:48;101139.28;;;16.10;80.35
55301;BME280;58302;51.446;-2.000;2022-07-22T04:14:16;101135.47;;;16.06;79.20
55301;BME280;58302;51.446;-2.000;2022-07-22T04:16:43;101138.50;;;16.04;78.82
55301;BME280;58302;51.446;-2.000;2022-07-22T04:19:12;101134.97;;;15.99;79.54
55301;BME280;58302;51.446;-2.000;2022-07-22T04:21:38;101142.41;;;15.93;78.91
55301;BME280;58302;51.446;-2.000;2022-07-22T04:24:04;101141.09;;;15.86;79.44
55301;BME280;58302;51.446;-2.000;2022-07-22T04:26:30;101139.19;;;15.81;79.72
55301;BME280;58302;51.446;-2.000;2022-07-22T04:28:56;101135.66;;;15.75;79.82
55301;BME280;58302;51.446;-2.000;2022-07-22T04:31:22;101138.16;;;15.72;79.87
55301;BME280;58302;51.446;-2.000;2022-07-22T04:33:48;101146.94;;;15.69;79.74
55301;BME280;58302;51.446;-2.000;2022-07-22T04:36:14;101146.94;;;15.69;79.92
55301;BME280;58302;51.446;-2.000;2022-07-22T04:38:41;101137.09;;;15.68;79.97
55301;BME280;58302;51.446;-2.000;2022-07-22T04:41:07;101143.09;;;15.70;79.91
55301;BME280;58302;51.446;-2.000;2022-07-22T04:43:33;101154.59;;;15.72;79.89
55301;BME280;58302;51.446;-2.000;2022-07-22T04:45:59;101148.53;;;15.75;80.22
55301;BME280;58302;51.446;-2.000;2022-07-22T04:48:26;101150.72;;;15.78;80.29
55301;BME280;58302;51.446;-2.000;2022-07-22T04:50:52;101149.03;;;15.82;79.63
55301;BME280;58302;51.446;-2.000;2022-07-22T04:53:19;101144.94;;;15.85;79.40
55301;BME280;58302;51.446;-2.000;2022-07-22T04:55:45;101153.13;;;15.90;79.21
55301;BME280;58302;51.446;-2.000;2022-07-22T04:58:11;101153.91;;;15.95;79.19
55301;BME280;58302;51.446;-2.000;2022-07-22T05:00:37;101154.44;;;15.97;79.06
55301;BME280;58302;51.446;-2.000;2022-07-22T05:03:03;101154.97;;;16.04;78.64
55301;BME280;58302;51.446;-2.000;2022-07-22T05:05:29;101149.19;;;16.06;78.38
55301;BME280;58302;51.446;-2.000;2022-07-22T05:07:55;101143.94;;;16.10;78.10
55301;BME280;58302;51.446;-2.000;2022-07-22T05:10:21;101149.38;;;16.15;77.89
55301;BME280;58302;51.446;-2.000;2022-07-22T05:12:47;101154.81;;;16.20;77.40
55301;BME280;58302;51.446;-2.000;2022-07-22T05:15:13;101152.63;;;16.22;77.14
55301;BME280;58302;51.446;-2.000;2022-07-22T05:17:39;101157.53;;;16.25;77.10
55301;BME280;58302;51.446;-2.000;2022-07-22T05:20:06;101152.00;;;16.30;76.86
55301;BME280;58302;51.446;-2.000;2022-07-22T05:22:32;101157.47;;;16.35;76.65
55301;BME280;58302;51.446;-2.000;2022-07-22T05:24:58;101156.59;;;16.40;76.73
55301;BME280;58302;51.446;-2.000;2022-07-22T05:27:24;101157.38;;;16.45;76.21
55301;BME280;58302;51.446;-2.000;2022-07-22T05:29:50;101154.06;;;16.48;75.41
55301;BME280;58302;51.446;-2.000;2022-07-22T05:32:16;101148.81;;;16.52;75.38
55301;BME280;58302;51.446;-2.000;2022-07-22T05:34:42;101148.47;;;16.58;75.27
55301;BME280;58302;51.446;-2.000;2022-07-22T05:37:08;101155.84;;;16.63;74.97
55301;BME280;58302;51.446;-2.000;2022-07-22T05:39:34;101148.97;;;16.66;74.72
55301;BME280;58302;51.446;-2.000;2022-07-22T05:42:00;101148.13;;;16.70;74.67
55301;BME280;58302;51.446;-2.000;2022-07-22T05:44:25;101147.84;;;16.72;74.15
55301;BME280;58302;51.446;-2.000;2022-07-22T05:46:51;101152.22;;;16.73;74.09
55301;BME280;58302;51.446;-2.000;2022-07-22T05:49:17;101146.44;;;16.69;74.48
55301;BME280;58302;51.446;-2.000;2022-07-22T05:51:45;101154.16;;;16.67;74.76
55301;BME280;58302;51.446;-2.000;2022-07-22T05:54:11;101156.66;;;16.64;75.26
55301;BME280;58302;51.446;-2.000;2022-07-22T05:56:37;101152.81;;;16.65;75.37
55301;BME280;58302;51.446;-2.000;2022-07-22T05:59:03;101142.41;;;16.62;75.26
55301;BME280;58302;51.446;-2.000;2022-07-22T06:01:29;101141.06;;;16.59;76.00
55301;BME280;58302;51.446;-2.000;2022-07-22T06:03:55;101140.84;;;16.55;75.98
55301;BME280;58302;51.446;-2.000;2022-07-22T06:06:21;101150.69;;;16.56;75.89
55301;BME280;58302;51.446;-2.000;2022-07-22T06:08:47;101144.91;;;16.58;76.04
55301;BME280;58302;51.446;-2.000;2022-07-22T06:11:13;101148.47;;;16.58;75.94
55301;BME280;58302;51.446;-2.000;2022-07-22T06:13:39;101145.69;;;16.64;76.06
55301;BME280;58302;51.446;-2.000;2022-07-22T06:16:05;101139.56;;;16.77;74.56
55301;BME280;58302;51.446;-2.000;2022-07-22T06:18:32;101139.97;;;16.89;74.13
55301;BME280;58302;51.446;-2.000;2022-07-22T06:20:58;101143.69;;;17.03;73.79
55301;BME280;58302;51.446;-2.000;2022-07-22T06:23:24;101143.50;;;17.19;72.98
55301;BME280;58302;51.446;-2.000;2022-07-22T06:25:50;101143.81;;;17.36;72.21
55301;BME280;58302;51.446;-2.000;2022-07-22T06:28:15;101143.56;;;17.56;71.47
55301;BME280;58302;51.446;-2.000;2022-07-22T06:30:41;101151.25;;;17.59;71.80
55301;BME280;58302;51.446;-2.000;2022-07-22T06:33:08;101144.81;;;17.69;71.68
55301;BME280;58302;51.446;-2.000;2022-07-22T06:35:34;101147.47;;;17.74;71.44
55301;BME280;58302;51.446;-2.000;2022-07-22T06:38:01;101154.28;;;17.82;70.92
55301;BME280;58302;51.446;-2.000;2022-07-22T06:40:27;101144.84;;;17.88;71.18
55301;BME280;58302;51.446;-2.000;2022-07-22T06:42:53;101149.75;;;17.91;70.45
55301;BME280;58302;51.446;-2.000;2022-07-22T06:45:19;101144.25;;;17.91;70.04
55301;BME280;58302;51.446;-2.000;2022-07-22T06:47:45;101143.19;;;18.06;70.19
55301;BME280;58302;51.446;-2.000;2022-07-22T06:50:11;101141.66;;;18.32;69.32
55301;BME280;58302;51.446;-2.000;2022-07-22T06:52:40;101138.75;;;18.42;68.72
55301;BME280;58302;51.446;-2.000;2022-07-22T06:55:07;101143.88;;;18.49;68.14
55301;BME280;58302;51.446;-2.000;2022-07-22T06:57:34;101144.41;;;18.65;67.64
55301;BME280;58302;51.446;-2.000;2022-07-22T07:00:01;101151.03;;;18.97;66.14
55301;BME280;58302;51.446;-2.000;2022-07-22T07:02:27;101153.19;;;19.13;65.79
55301;BME280;58302;51.446;-2.000;2022-07-22T07:04:53;101149.00;;;19.16;65.63
55301;BME280;58302;51.446;-2.000;2022-07-22T07:07:19;101150.00;;;19.06;65.89
55301;BME280;58302;51.446;-2.000;2022-07-22T07:09:45;101144.47;;;18.79;66.58
55301;BME280;58302;51.446;-2.000;2022-07-22T07:12:11;101131.94;;;18.54;67.33
55301;BME280;58302;51.446;-2.000;2022-07-22T07:14:36;101135.03;;;18.33;67.79
55301;BME280;58302;51.446;-2.000;2022-07-22T07:17:02;101138.66;;;18.15;68.41
55301;BME280;58302;51.446;-2.000;2022-07-22T07:19:28;101138.66;;;17.96;69.52
55301;BME280;58302;51.446;-2.000;2022-07-22T07:21:54;101140.81;;;17.80;69.62
55301;BME280;58302;51.446;-2.000;2022-07-22T07:24:20;101137.94;;;17.67;70.67
55301;BME280;58302;51.446;-2.000;2022-07-22T07:26:46;101135.88;;;17.58;70.70
55301;BME280;58302;51.446;-2.000;2022-07-22T07:29:12;101134.00;;;17.54;70.85
55301;BME280;58302;51.446;-2.000;2022-07-22T07:31:38;101138.09;;;17.56;71.32
55301;BME280;58302;51.446;-2.000;2022-07-22T07:34:04;101130.28;;;17.63;70.74
55301;BME280;58302;51.446;-2.000;2022-07-22T07:36:30;101123.38;;;17.66;70.75
55301;BME280;58302;51.446;-2.000;2022-07-22T07:38:56;101127.50;;;17.87;70.03
55301;BME280;58302;51.446;-2.000;2022-07-22T07:41:22;101138.50;;;18.06;69.82
55301;BME280;58302;51.446;-2.000;2022-07-22T07:43:49;101132.03;;;18.16;68.87
55301;BME280;58302;51.446;-2.000;2022-07-22T07:46:15;101135.13;;;18.28;68.26
55301;BME280;58302;51.446;-2.000;2022-07-22T07:48:41;101142.16;;;18.34;67.80
55301;BME280;58302;51.446;-2.000;2022-07-22T07:51:08;101130.41;;;18.48;67.95
55301;BME280;58302;51.446;-2.000;2022-07-22T07:53:34;101132.44;;;18.56;67.34
55301;BME280;58302;51.446;-2.000;2022-07-22T07:56:00;101134.47;;;18.50;67.10
55301;BME280;58302;51.446;-2.000;2022-07-22T07:58:26;101143.75;;;18.40;67.52
55301;BME280;58302;51.446;-2.000;2022-07-22T08:00:52;101145.13;;;18.24;68.17
55301;BME280;58302;51.446;-2.000;2022-07-22T08:03:18;101138.88;;;18.19;68.78
55301;BME280;58302;51.446;-2.000;2022-07-22T08:05:44;101132.84;;;18.16;68.49
55301;BME280;58302;51.446;-2.000;2022-07-22T08:08:10;101137.75;;;18.20;68.74
55301;BME280;58302;51.446;-2.000;2022-07-22T08:10:36;101137.75;;;18.20;69.11
55301;BME280;58302;51.446;-2.000;2022-07-22T08:13:03;101141.34;;;18.34;68.42
55301;BME280;58302;51.446;-2.000;2022-07-22T08:15:30;101136.97;;;18.33;68.56
55301;BME280;58302;51.446;-2.000;2022-07-22T08:17:56;101143.53;;;18.37;68.53
55301;BME280;58302;51.446;-2.000;2022-07-22T08:20:24;101133.41;;;18.32;68.45
55301;BME280;58302;51.446;-2.000;2022-07-22T08:22:51;101135.78;;;18.39;68.69
55301;BME280;58302;51.446;-2.000;2022-07-22T08:25:18;101139.47;;;18.48;68.45
55301;BME280;58302;51.446;-2.000;2022-07-22T08:27:44;101135.00;;;18.52;68.09
55301;BME280;58302;51.446;-2.000;2022-07-22T08:30:11;101137.03;;;18.47;68.01
55301;BME280;58302;51.446;-2.000;2022-07-22T08:32:37;101131.00;;;18.44;68.08
55301;BME280;58302;51.446;-2.000;2022-07-22T08:35:05;101135.56;;;18.35;68.09
55301;BME280;58302;51.446;-2.000;2022-07-22T08:37:31;101132.75;;;18.22;69.09
55301;BME280;58302;51.446;-2.000;2022-07-22T08:39:57;101130.78;;;18.08;69.75
55301;BME280;58302;51.446;-2.000;2022-07-22T08:42:30;101131.38;;;18.05;70.09
55301;BME280;58302;51.446;-2.000;2022-07-22T08:44:56;101130.84;;;18.03;70.30
55301;BME280;58302;51.446;-2.000;2022-07-22T08:47:23;101126.69;;;18.06;70.12
55301;BME280;58302;51.446;-2.000;2022-07-22T08:49:50;101130.97;;;18.12;70.39
55301;BME280;58302;51.446;-2.000;2022-07-22T08:52:16;101133.00;;;18.06;71.85
55301;BME280;58302;51.446;-2.000;2022-07-22T08:54:42;101130.56;;;18.05;73.52
55301;BME280;58302;51.446;-2.000;2022-07-22T08:57:08;101133.88;;;18.02;74.94
55301;BME280;58302;51.446;-2.000;2022-07-22T08:59:52;101135.16;;;18.09;75.51
55301;BME280;58302;51.446;-2.000;2022-07-22T09:02:18;101131.59;;;18.09;74.62
55301;BME280;58302;51.446;-2.000;2022-07-22T09:07:30;101132.78;;;18.03;74.00
55301;BME280;58302;51.446;-2.000;2022-07-22T09:09:58;101136.47;;;18.12;74.76
55301;BME280;58302;51.446;-2.000;2022-07-22T09:12:25;101128.97;;;18.17;72.76
55301;BME280;58302;51.446;-2.000;2022-07-22T09:14:55;101120.13;;;18.53;74.21
55301;BME280;58302;51.446;-2.000;2022-07-22T09:17:36;101119.22;;;19.18;71.74
55301;BME280;58302;51.446;-2.000;2022-07-22T09:20:14;101112.13;;;19.53;70.14
55301;BME280;58302;51.446;-2.000;2022-07-22T09:22:42;101109.59;;;19.93;67.59
55301;BME280;58302;51.446;-2.000;2022-07-22T09:27:47;101104.06;;;20.60;64.78
55301;BME280;58302;51.446;-2.000;2022-07-22T09:30:15;101114.53;;;21.12;63.18
55301;BME280;58302;51.446;-2.000;2022-07-22T09:32:43;101104.78;;;21.89;59.61
55301;BME280;58302;51.446;-2.000;2022-07-22T09:35:11;101109.66;;;22.09;58.67
55301;BME280;58302;51.446;-2.000;2022-07-22T09:37:38;101112.94;;;22.11;57.18
55301;BME280;58302;51.446;-2.000;2022-07-22T09:40:14;101113.06;;;22.06;57.35
55301;BME280;58302;51.446;-2.000;2022-07-22T09:42:52;101115.53;;;21.99;58.23
55301;BME280;58302;51.446;-2.000;2022-07-22T09:45:19;101103.00;;;21.84;59.15
55301;BME280;58302;51.446;-2.000;2022-07-22T09:47:46;101107.78;;;21.26;60.43
55301;BME280;58302;51.446;-2.000;2022-07-22T09:50:29;101113.09;;;20.74;62.74
55301;BME280;58302;51.446;-2.000;2022-07-22T09:52:57;101105.31;;;20.54;63.19
55301;BME280;58302;51.446;-2.000;2022-07-22T09:55:24;101108.16;;;20.40;63.35
55301;BME280;58302;51.446;-2.000;2022-07-22T09:57:52;101108.16;;;20.40;63.17
55301;BME280;58302;51.446;-2.000;2022-07-22T10:00:21;101103.50;;;20.27;63.60
55301;BME280;58302;51.446;-2.000;2022-07-22T10:02:51;101104.59;;;20.17;63.54
55301;BME280;58302;51.446;-2.000;2022-07-22T10:05:21;101103.69;;;20.08;64.57
55301;BME280;58302;51.446;-2.000;2022-07-22T10:07:48;101106.09;;;20.23;64.05
55301;BME280;58302;51.446;-2.000;2022-07-22T10:10:17;101102.31;;;20.42;63.97
55301;BME280;58302;51.446;-2.000;2022-07-22T10:12:45;101093.13;;;20.77;61.79
55301;BME280;58302;51.446;-2.000;2022-07-22T10:15:13;101095.88;;;21.17;60.97
55301;BME280;58302;51.446;-2.000;2022-07-22T10:17:42;101098.28;;;21.76;58.69
55301;BME280;58302;51.446;-2.000;2022-07-22T10:20:10;101091.78;;;21.98;56.88
55301;BME280;58302;51.446;-2.000;2022-07-22T10:25:07;101083.63;;;21.93;56.78
55301;BME280;58302;51.446;-2.000;2022-07-22T10:28:00;101085.88;;;21.91;57.87
55301;BME280;58302;51.446;-2.000;2022-07-22T10:30:29;101085.72;;;21.78;58.40
55301;BME280;58302;51.446;-2.000;2022-07-22T10:33:12;101084.91;;;21.78;57.81
55301;BME280;58302;51.446;-2.000;2022-07-22T10:36:00;101088.19;;;21.71;58.05
55301;BME280;58302;51.446;-2.000;2022-07-22T10:38:27;101094.19;;;21.56;58.10
55301;BME280;58302;51.446;-2.000;2022-07-22T10:40:59;101091.09;;;21.66;59.35
55301;BME280;58302;51.446;-2.000;2022-07-22T10:43:30;101079.88;;;21.89;58.59
55301;BME280;58302;51.446;-2.000;2022-07-22T10:46:03;101084.06;;;22.38;56.68
55301;BME280;58302;51.446;-2.000;2022-07-22T10:58:52;101072.56;;;24.38;50.57
55301;BME280;58302;51.446;-2.000;2022-07-22T11:01:23;101068.47;;;24.81;48.90
55301;BME280;58302;51.446;-2.000;2022-07-22T11:03:50;101063.47;;;24.98;47.21
55301;BME280;58302;51.446;-2.000;2022-07-22T11:06:30;101064.97;;;25.33;46.84
55301;BME280;58302;51.446;-2.000;2022-07-22T11:09:03;101062.72;;;26.03;46.40
55301;BME280;58302;51.446;-2.000;2022-07-22T11:14:30;101048.13;;;28.29;39.62
55301;BME280;58302;51.446;-2.000;2022-07-22T11:19:32;101046.22;;;29.29;37.55
55301;BME280;58302;51.446;-2.000;2022-07-22T11:22:01;101056.09;;;29.23;37.77
55301;BME280;58302;51.446;-2.000;2022-07-22T11:24:30;101041.97;;;29.69;37.04
55301;BME280;58302;51.446;-2.000;2022-07-22T11:26:59;101043.78;;;29.87;35.81
55301;BME280;58302;51.446;-2.000;2022-07-22T11:29:38;101036.69;;;29.97;35.97
55301;BME280;58302;51.446;-2.000;2022-07-22T11:32:13;101046.91;;;29.79;36.11
55301;BME280;58302;51.446;-2.000;2022-07-22T11:34:41;101035.22;;;30.07;35.46
55301;BME280;58302;51.446;-2.000;2022-07-22T11:37:11;101040.53;;;29.82;34.81
55301;BME280;58302;51.446;-2.000;2022-07-22T11:39:37;101040.03;;;29.16;36.90
55301;BME280;58302;51.446;-2.000;2022-07-22T11:42:04;101032.75;;;28.85;37.58
55301;BME280;58302;51.446;-2.000;2022-07-22T11:44:34;101021.19;;;27.98;38.41
55301;BME280;58302;51.446;-2.000;2022-07-22T11:47:01;101024.19;;;27.31;40.23
55301;BME280;58302;51.446;-2.000;2022-07-22T11:49:29;101018.66;;;28.13;39.63
55301;BME280;58302;51.446;-2.000;2022-07-22T11:51:56;101010.13;;;28.71;37.53
55301;BME280;58302;51.446;-2.000;2022-07-22T11:54:23;101014.78;;;28.40;38.49
55301;BME280;58302;51.446;-2.000;2022-07-22T11:56:49;101005.53;;;27.94;39.72
55301;BME280;58302;51.446;-2.000;2022-07-22T11:59:16;101000.84;;;27.98;39.57
55301;BME280;58302;51.446;-2.000;2022-07-22T12:01:47;101006.53;;;28.47;38.82
55301;BME280;58302;51.446;-2.000;2022-07-22T12:04:19;101000.25;;;29.03;37.68
55301;BME280;58302;51.446;-2.000;2022-07-22T12:06:46;100992.53;;;29.53;36.72
55301;BME280;58302;51.446;-2.000;2022-07-22T12:09:15;100995.25;;;29.50;35.66
55301;BME280;58302;51.446;-2.000;2022-07-22T12:11:46;100991.09;;;29.36;36.27
55301;BME280;58302;51.446;-2.000;2022-07-22T12:14:15;100983.50;;;30.04;35.67
55301;BME280;58302;51.446;-2.000;2022-07-22T12:16:43;100986.03;;;29.46;35.80
55301;BME280;58302;51.446;-2.000;2022-07-22T12:19:13;100982.13;;;29.87;34.68
55301;BME280;58302;51.446;-2.000;2022-07-22T12:22:00;100978.84;;;29.78;33.48
55301;BME280;58302;51.446;-2.000;2022-07-22T12:27:25;100991.28;;;29.81;34.51
55301;BME280;58302;51.446;-2.000;2022-07-22T12:29:51;100993.31;;;30.21;32.97
55301;BME280;58302;51.446;-2.000;2022-07-22T12:32:28;100992.06;;;29.81;33.01
55301;BME280;58302;51.446;-2.000;2022-07-22T12:34:59;100980.31;;;29.38;34.20
55301;BME280;58302;51.446;-2.000;2022-07-22T12:42:44;100983.09;;;27.90;37.20
55301;BME280;58302;51.446;-2.000;2022-07-22T12:45:18;100981.06;;;27.48;37.63
55301;BME280;58302;51.446;-2.000;2022-07-22T12:47:50;100984.00;;;27.36;38.45
55301;BME280;58302;51.446;-2.000;2022-07-22T12:50:27;100974.16;;;27.42;38.28
55301;BME280;58302;51.446;-2.000;2022-07-22T12:55:24;100974.00;;;27.00;39.72
55301;BME280;58302;51.446;-2.000;2022-07-22T12:57:51;100973.19;;;26.99;39.34
55301;BME280;58302;51.446;-2.000;2022-07-22T13:00:20;100974.00;;;26.65;40.43
55301;BME280;58302;51.446;-2.000;2022-07-22T13:02:46;100977.13;;;26.63;40.58
55301;BME280;58302;51.446;-2.000;2022-07-22T13:05:13;100976.28;;;26.31;42.04
55301;BME280;58302;51.446;-2.000;2022-07-22T13:07:39;100964.13;;;25.92;42.40
55301;BME280;58302;51.446;-2.000;2022-07-22T13:10:07;100968.94;;;25.51;43.88
55301;BME280;58302;51.446;-2.000;2022-07-22T13:12:33;100967.16;;;25.31;43.75
55301;BME280;58302;51.446;-2.000;2022-07-22T13:14:59;100962.34;;;25.43;44.35